Zenken Maru — JG5556 — position and weather

sailwx.info

Track history (hours):
 
Tides and Currents Weather Stations Pressure Air Temp Water Temp Dewpoint Dewpoint Depression Visibility Wind Speed Wind Dir Waves Ship Positions

Zenken Maru

Last reported at 2015-Apr-24 23:33 UTC. Time now 2015-Apr-26 09:51 UTC.
Position N 35°24' E 139°38'.

Length 98 m; draft 7.2 m.

Type: Cargo ship. MMSI: 431100955.

Date/timePositionNaut miles runAvg speedWind from/ knotsBaromVisibWave heightAir tempDewpointWater temp
2015-Apr-24 23:33N 35°24' E 139°38'1 1.1
2015-Apr-24 22:33N 35°23' E 139°39'3 2.6
2015-Apr-24 21:31N 35°21' E 139°41'0 0.0
2015-Apr-24 20:31N 35°21' E 139°41'0 0.0
2015-Apr-24 19:31N 35°21' E 139°41'0 0.0
2015-Apr-24 18:31N 35°21' E 139°41'0 0.0
2015-Apr-24 17:31N 35°21' E 139°41'0 0.0
2015-Apr-24 16:33N 35°21' E 139°41'0 0.0
2015-Apr-24 15:33N 35°21' E 139°41'0 0.0
2015-Apr-24 14:33N 35°21' E 139°41'0 0.0
2015-Apr-24 13:33N 35°21' E 139°41'0 0.1
2015-Apr-24 12:33N 35°21' E 139°41'0 0.0
2015-Apr-24 11:33N 35°21' E 139°41'0 0.0
2015-Apr-24 10:33N 35°21' E 139°41'0 0.0
2015-Apr-24 09:33N 35°21' E 139°41'0 0.0
2015-Apr-24 08:32N 35°21' E 139°41'0 0.0
2015-Apr-24 07:29N 35°21' E 139°41'0 0.1
2015-Apr-24 06:32N 35°21' E 139°41'0 0.0
2015-Apr-24 05:32N 35°21' E 139°41'0 0.0
2015-Apr-24 04:32N 35°21' E 139°41'0 0.0
2015-Apr-24 03:32N 35°21' E 139°41'0 0.0
2015-Apr-24 02:32N 35°21' E 139°41'0 0.0
2015-Apr-24 01:32N 35°21' E 139°41'0 0.0
2015-Apr-24 00:32N 35°21' E 139°41'0 0.0
2015-Apr-23 23:32N 35°21' E 139°41'0 0.0
2015-Apr-23 22:32N 35°21' E 139°41'0 0.0
2015-Apr-23 21:32N 35°21' E 139°41'5 5.2
2015-Apr-23 20:33N 35°17' E 139°45'1211.7
2015-Apr-23 19:33N 35°06' E 139°45'1212.0
2015-Apr-23 18:33N 34°54' E 139°46'1711.8
2015-Apr-23 17:05N 34°38' E 139°55'13 0.4
2015-Apr-22 10:24N 34°49' E 139°48'910.4
2015-Apr-22 09:33N 34°58' E 139°44'1010.4
2015-Apr-22 08:33N 35°08' E 139°45'1010.4
2015-Apr-22 07:33N 35°18' E 139°44'7 6.6
2015-Apr-22 06:33N 35°23' E 139°39'0 0.0
2015-Apr-22 05:33N 35°23' E 139°39'0 0.0
2015-Apr-22 04:32N 35°23' E 139°39'0 0.0
2015-Apr-22 03:32N 35°23' E 139°39'0 0.0
2015-Apr-22 02:32N 35°23' E 139°39'0 0.0
2015-Apr-22 01:32N 35°23' E 139°39'0 0.0
2015-Apr-22 00:32N 35°23' E 139°39'0 0.0
2015-Apr-21 23:32N 35°23' E 139°39'2 2.1
2015-Apr-21 22:33N 35°22' E 139°41'1 0.9
2015-Apr-21 21:31N 35°21' E 139°41'0 0.0
2015-Apr-21 20:28N 35°21' E 139°41'0 0.0
2015-Apr-21 19:31N 35°21' E 139°41'0 0.0
2015-Apr-21 18:31N 35°21' E 139°41'0 0.0
2015-Apr-21 17:31N 35°21' E 139°41'0 0.0
2015-Apr-21 16:31N 35°21' E 139°41'0 0.0
2015-Apr-21 15:31N 35°21' E 139°41'0 0.0
2015-Apr-21 14:31N 35°21' E 139°41'0 0.0
2015-Apr-21 13:31N 35°21' E 139°41'0 0.0
2015-Apr-21 12:31N 35°21' E 139°41'0 0.0
2015-Apr-21 11:31N 35°21' E 139°41'0 0.0
2015-Apr-21 10:28N 35°21' E 139°41'0 0.0
2015-Apr-21 09:31N 35°21' E 139°41'0 0.0
2015-Apr-21 08:31N 35°21' E 139°41'0 0.0
2015-Apr-21 07:31N 35°21' E 139°41'0 0.0
2015-Apr-21 06:31N 35°21' E 139°41'0 0.0
2015-Apr-21 05:31N 35°21' E 139°41'0 0.0
2015-Apr-21 04:31N 35°21' E 139°41'0 0.0
2015-Apr-21 03:31N 35°21' E 139°41'0 0.0
2015-Apr-21 02:32N 35°21' E 139°41'0 0.1
2015-Apr-21 01:31N 35°21' E 139°41'0 0.0
2015-Apr-21 00:33N 35°21' E 139°41'0 0.0
2015-Apr-20 23:33N 35°21' E 139°41'0 0.0
2015-Apr-20 22:33N 35°21' E 139°41'0 0.1
2015-Apr-20 21:34N 35°21' E 139°41'0 0.0
2015-Apr-20 20:34N 35°21' E 139°41'0 0.0
2015-Apr-20 19:33N 35°21' E 139°41'0 0.0
2015-Apr-20 18:34N 35°21' E 139°41'0 0.0
2015-Apr-20 17:31N 35°21' E 139°41'0 0.0
2015-Apr-20 16:33N 35°21' E 139°41'0 0.0
2015-Apr-20 15:33N 35°21' E 139°41'0 0.0
2015-Apr-20 14:33N 35°21' E 139°41'0 0.0
2015-Apr-20 13:33N 35°21' E 139°41'0 0.0
2015-Apr-20 12:33N 35°21' E 139°41'0 0.0
2015-Apr-20 11:33N 35°21' E 139°41'0 0.0
2015-Apr-20 10:33N 35°21' E 139°41'0 0.0
2015-Apr-20 09:33N 35°21' E 139°41'0 0.0
2015-Apr-20 08:33N 35°21' E 139°41'0 0.0
2015-Apr-20 07:34N 35°21' E 139°41'0 0.0
2015-Apr-20 06:33N 35°21' E 139°41'0 0.0
2015-Apr-20 05:33N 35°21' E 139°41'0 0.0
2015-Apr-20 04:31N 35°21' E 139°41'3 2.6
2015-Apr-20 03:32N 35°23' E 139°39'0 0.0
2015-Apr-20 02:32N 35°23' E 139°39'0 0.0
2015-Apr-20 01:29N 35°23' E 139°39'0 0.0
2015-Apr-20 00:32N 35°23' E 139°39'0 0.0
2015-Apr-19 23:32N 35°23' E 139°39'0 0.3
2015-Apr-19 22:33N 35°24' E 139°39'3 2.6
2015-Apr-19 21:28N 35°21' E 139°41'0 0.0
2015-Apr-19 20:31N 35°21' E 139°41'0 0.0
2015-Apr-19 19:31N 35°21' E 139°41'0 0.0
2015-Apr-19 18:31N 35°21' E 139°41'0 0.0
2015-Apr-19 17:28N 35°21' E 139°41'0 0.0
2015-Apr-19 16:31N 35°21' E 139°41'0 0.0
2015-Apr-19 15:31N 35°21' E 139°41'0 0.1
2015-Apr-19 14:31N 35°21' E 139°41'0 0.0
2015-Apr-19 13:31N 35°21' E 139°41'0 0.0
2015-Apr-19 12:31N 35°21' E 139°41'0 0.0
2015-Apr-19 11:31N 35°21' E 139°41'0 0.0
2015-Apr-19 10:31N 35°21' E 139°41'0 0.0
2015-Apr-19 09:31N 35°21' E 139°41'0 0.1
2015-Apr-19 08:31N 35°21' E 139°41'0 0.0
2015-Apr-19 07:31N 35°21' E 139°41'0 0.0
2015-Apr-19 06:31N 35°21' E 139°41'0 0.0
2015-Apr-19 05:28N 35°21' E 139°41'0 0.0
2015-Apr-19 04:28N 35°21' E 139°41'0 0.0
2015-Apr-19 03:28N 35°21' E 139°41'0 0.0
2015-Apr-19 02:31N 35°21' E 139°41'0 0.1
2015-Apr-19 01:28N 35°21' E 139°41'0 0.0
2015-Apr-19 00:28N 35°21' E 139°41'0 0.0
2015-Apr-18 23:31N 35°21' E 139°41'0 0.0
2015-Apr-18 22:31N 35°21' E 139°41'0 0.0
2015-Apr-18 21:31N 35°21' E 139°41'0 0.0
2015-Apr-18 20:31N 35°21' E 139°41'4 4.2
2015-Apr-18 19:33N 35°18' E 139°44'1110.7
2015-Apr-18 18:33N 35°07' E 139°45'1110.8
2015-Apr-18 17:33N 34°57' E 139°44'1211.3
2015-Apr-18 16:29N 34°46' E 139°50'1111.2
2015-Apr-18 15:30N 34°36' E 139°56'25 0.7
2015-Apr-17 06:31N 34°58' E 139°43'1010.4
2015-Apr-17 05:33N 35°08' E 139°45'10 9.8
2015-Apr-17 04:33N 35°18' E 139°44'7 7.1
2015-Apr-17 03:33N 35°23' E 139°39'0 0.0
2015-Apr-17 02:28N 35°23' E 139°39'0 0.0
2015-Apr-17 01:28N 35°23' E 139°39'0 0.0
2015-Apr-17 00:31N 35°23' E 139°39'0 0.0
2015-Apr-16 23:31N 35°23' E 139°39'0 0.4
2015-Apr-16 22:33N 35°23' E 139°40'3 2.9
2015-Apr-16 21:30N 35°21' E 139°41'0 0.0
2015-Apr-16 20:33N 35°21' E 139°41'0 0.0
2015-Apr-16 19:33N 35°21' E 139°41'0 0.0
2015-Apr-16 18:33N 35°21' E 139°41'0 0.1
2015-Apr-16 17:33N 35°21' E 139°41'0 0.0
2015-Apr-16 16:33N 35°21' E 139°41'0 0.0
2015-Apr-16 15:33N 35°21' E 139°41'0 0.0
2015-Apr-16 14:33N 35°21' E 139°41'0 0.0
2015-Apr-16 13:33N 35°21' E 139°41'0 0.0
2015-Apr-16 12:33N 35°21' E 139°41'0 0.0
2015-Apr-16 11:33N 35°21' E 139°41'0 0.0
2015-Apr-16 10:33N 35°21' E 139°41'0 0.0
2015-Apr-16 09:33N 35°21' E 139°41'0 0.0
2015-Apr-16 08:33N 35°21' E 139°41'0 0.0
2015-Apr-16 07:18N 35°21' E 139°41'0 0.0
2015-Apr-16 06:15N 35°21' E 139°41'0 0.0
2015-Apr-16 05:33N 35°21' E 139°41'0 0.0
2015-Apr-16 04:33N 35°21' E 139°41'0 0.0
2015-Apr-16 03:33N 35°21' E 139°41'0 0.0
2015-Apr-16 02:33N 35°21' E 139°41'0 0.0
2015-Apr-16 01:33N 35°21' E 139°41'0 0.0
2015-Apr-15 23:33N 35°21' E 139°41'0 0.1
2015-Apr-15 22:33N 35°21' E 139°41'0 0.1
2015-Apr-15 21:18N 35°21' E 139°41'0 0.0
2015-Apr-15 20:15N 35°21' E 139°41'0 0.1
2015-Apr-15 19:33N 35°21' E 139°41'0 0.0
2015-Apr-15 18:27N 35°21' E 139°41'0 0.1
2015-Apr-15 17:33N 35°21' E 139°41'0 0.1
2015-Apr-15 16:30N 35°21' E 139°41'0 0.0
2015-Apr-15 15:33N 35°21' E 139°41'0 0.0
2015-Apr-15 14:33N 35°21' E 139°41'0 0.0
2015-Apr-15 13:33N 35°21' E 139°41'0 0.1
2015-Apr-15 12:33N 35°21' E 139°41'0 0.1
2015-Apr-15 11:33N 35°21' E 139°41'0 0.0
2015-Apr-15 10:34N 35°21' E 139°41'0 0.0
2015-Apr-15 09:31N 35°21' E 139°41'0 0.0
2015-Apr-15 08:33N 35°21' E 139°41'0 0.0
2015-Apr-15 07:34N 35°21' E 139°41'0 0.1
2015-Apr-15 06:34N 35°21' E 139°41'0 0.0
2015-Apr-15 05:33N 35°21' E 139°41'0 0.0
2015-Apr-15 04:34N 35°21' E 139°41'0 0.0
2015-Apr-15 03:33N 35°21' E 139°41'0 0.0
2015-Apr-15 02:33N 35°21' E 139°41'0 0.1
2015-Apr-15 01:34N 35°21' E 139°41'0 0.1
2015-Apr-15 00:33N 35°21' E 139°41'  
Track history (hours):
 
Tides and Currents Weather Stations Pressure Air Temp Water Temp Dewpoint Dewpoint Depression Visibility Wind Speed Wind Dir Waves Ship Positions

Zenken Maru

Last reported at 2015-Apr-24 23:33 UTC. Time now 2015-Apr-26 09:52 UTC.
Position N 35°24' E 139°38'.

Length 98 m; draft 7.2 m.

Type: Cargo ship. MMSI: 431100955.

Date/timePositionNaut miles runAvg speedWind from/ knotsBaromVisibWave heightAir tempDewpointWater temp
2015-Apr-24 23:33N 35°24' E 139°38'1 1.1
2015-Apr-24 22:33N 35°23' E 139°39'3 2.6
2015-Apr-24 21:31N 35°21' E 139°41'0 0.0
2015-Apr-24 20:31N 35°21' E 139°41'0 0.0
2015-Apr-24 19:31N 35°21' E 139°41'0 0.0
2015-Apr-24 18:31N 35°21' E 139°41'0 0.0
2015-Apr-24 17:31N 35°21' E 139°41'0 0.0
2015-Apr-24 16:33N 35°21' E 139°41'0 0.0
2015-Apr-24 15:33N 35°21' E 139°41'0 0.0
2015-Apr-24 14:33N 35°21' E 139°41'0 0.0
2015-Apr-24 13:33N 35°21' E 139°41'0 0.1
2015-Apr-24 12:33N 35°21' E 139°41'0 0.0
2015-Apr-24 11:33N 35°21' E 139°41'0 0.0
2015-Apr-24 10:33N 35°21' E 139°41'0 0.0
2015-Apr-24 09:33N 35°21' E 139°41'0 0.0
2015-Apr-24 08:32N 35°21' E 139°41'0 0.0
2015-Apr-24 07:29N 35°21' E 139°41'0 0.1
2015-Apr-24 06:32N 35°21' E 139°41'0 0.0
2015-Apr-24 05:32N 35°21' E 139°41'0 0.0
2015-Apr-24 04:32N 35°21' E 139°41'0 0.0
2015-Apr-24 03:32N 35°21' E 139°41'0 0.0
2015-Apr-24 02:32N 35°21' E 139°41'0 0.0
2015-Apr-24 01:32N 35°21' E 139°41'0 0.0
2015-Apr-24 00:32N 35°21' E 139°41'0 0.0
2015-Apr-23 23:32N 35°21' E 139°41'0 0.0
2015-Apr-23 22:32N 35°21' E 139°41'0 0.0
2015-Apr-23 21:32N 35°21' E 139°41'5 5.2
2015-Apr-23 20:33N 35°17' E 139°45'1211.7
2015-Apr-23 19:33N 35°06' E 139°45'1212.0
2015-Apr-23 18:33N 34°54' E 139°46'1711.8
2015-Apr-23 17:05N 34°38' E 139°55'13 0.4
2015-Apr-22 10:24N 34°49' E 139°48'910.4
2015-Apr-22 09:33N 34°58' E 139°44'1010.4
2015-Apr-22 08:33N 35°08' E 139°45'1010.4
2015-Apr-22 07:33N 35°18' E 139°44'7 6.6
2015-Apr-22 06:33N 35°23' E 139°39'0 0.0
2015-Apr-22 05:33N 35°23' E 139°39'0 0.0
2015-Apr-22 04:32N 35°23' E 139°39'0 0.0
2015-Apr-22 03:32N 35°23' E 139°39'0 0.0
2015-Apr-22 02:32N 35°23' E 139°39'0 0.0
2015-Apr-22 01:32N 35°23' E 139°39'0 0.0
2015-Apr-22 00:32N 35°23' E 139°39'0 0.0
2015-Apr-21 23:32N 35°23' E 139°39'2 2.1
2015-Apr-21 22:33N 35°22' E 139°41'1 0.9
2015-Apr-21 21:31N 35°21' E 139°41'0 0.0
2015-Apr-21 20:28N 35°21' E 139°41'0 0.0
2015-Apr-21 19:31N 35°21' E 139°41'0 0.0
2015-Apr-21 18:31N 35°21' E 139°41'0 0.0
2015-Apr-21 17:31N 35°21' E 139°41'0 0.0
2015-Apr-21 16:31N 35°21' E 139°41'0 0.0
2015-Apr-21 15:31N 35°21' E 139°41'0 0.0
2015-Apr-21 14:31N 35°21' E 139°41'0 0.0
2015-Apr-21 13:31N 35°21' E 139°41'0 0.0
2015-Apr-21 12:31N 35°21' E 139°41'0 0.0
2015-Apr-21 11:31N 35°21' E 139°41'0 0.0
2015-Apr-21 10:28N 35°21' E 139°41'0 0.0
2015-Apr-21 09:31N 35°21' E 139°41'0 0.0
2015-Apr-21 08:31N 35°21' E 139°41'0 0.0
2015-Apr-21 07:31N 35°21' E 139°41'0 0.0
2015-Apr-21 06:31N 35°21' E 139°41'0 0.0
2015-Apr-21 05:31N 35°21' E 139°41'0 0.0
2015-Apr-21 04:31N 35°21' E 139°41'0 0.0
2015-Apr-21 03:31N 35°21' E 139°41'0 0.0
2015-Apr-21 02:32N 35°21' E 139°41'0 0.1
2015-Apr-21 01:31N 35°21' E 139°41'0 0.0
2015-Apr-21 00:33N 35°21' E 139°41'0 0.0
2015-Apr-20 23:33N 35°21' E 139°41'0 0.0
2015-Apr-20 22:33N 35°21' E 139°41'0 0.1
2015-Apr-20 21:34N 35°21' E 139°41'0 0.0
2015-Apr-20 20:34N 35°21' E 139°41'0 0.0
2015-Apr-20 19:33N 35°21' E 139°41'0 0.0
2015-Apr-20 18:34N 35°21' E 139°41'0 0.0
2015-Apr-20 17:31N 35°21' E 139°41'0 0.0
2015-Apr-20 16:33N 35°21' E 139°41'0 0.0
2015-Apr-20 15:33N 35°21' E 139°41'0 0.0
2015-Apr-20 14:33N 35°21' E 139°41'0 0.0
2015-Apr-20 13:33N 35°21' E 139°41'0 0.0
2015-Apr-20 12:33N 35°21' E 139°41'0 0.0
2015-Apr-20 11:33N 35°21' E 139°41'0 0.0
2015-Apr-20 10:33N 35°21' E 139°41'0 0.0
2015-Apr-20 09:33N 35°21' E 139°41'0 0.0
2015-Apr-20 08:33N 35°21' E 139°41'0 0.0
2015-Apr-20 07:34N 35°21' E 139°41'0 0.0
2015-Apr-20 06:33N 35°21' E 139°41'0 0.0
2015-Apr-20 05:33N 35°21' E 139°41'0 0.0
2015-Apr-20 04:31N 35°21' E 139°41'3 2.6
2015-Apr-20 03:32N 35°23' E 139°39'0 0.0
2015-Apr-20 02:32N 35°23' E 139°39'0 0.0
2015-Apr-20 01:29N 35°23' E 139°39'0 0.0
2015-Apr-20 00:32N 35°23' E 139°39'0 0.0
2015-Apr-19 23:32N 35°23' E 139°39'0 0.3
2015-Apr-19 22:33N 35°24' E 139°39'3 2.6
2015-Apr-19 21:28N 35°21' E 139°41'0 0.0
2015-Apr-19 20:31N 35°21' E 139°41'0 0.0
2015-Apr-19 19:31N 35°21' E 139°41'0 0.0
2015-Apr-19 18:31N 35°21' E 139°41'0 0.0
2015-Apr-19 17:28N 35°21' E 139°41'0 0.0
2015-Apr-19 16:31N 35°21' E 139°41'0 0.0
2015-Apr-19 15:31N 35°21' E 139°41'0 0.1
2015-Apr-19 14:31N 35°21' E 139°41'0 0.0
2015-Apr-19 13:31N 35°21' E 139°41'0 0.0
2015-Apr-19 12:31N 35°21' E 139°41'0 0.0
2015-Apr-19 11:31N 35°21' E 139°41'0 0.0
2015-Apr-19 10:31N 35°21' E 139°41'0 0.0
2015-Apr-19 09:31N 35°21' E 139°41'0 0.1
2015-Apr-19 08:31N 35°21' E 139°41'0 0.0
2015-Apr-19 07:31N 35°21' E 139°41'0 0.0
2015-Apr-19 06:31N 35°21' E 139°41'0 0.0
2015-Apr-19 05:28N 35°21' E 139°41'0 0.0
2015-Apr-19 04:28N 35°21' E 139°41'0 0.0
2015-Apr-19 03:28N 35°21' E 139°41'0 0.0
2015-Apr-19 02:31N 35°21' E 139°41'0 0.1
2015-Apr-19 01:28N 35°21' E 139°41'0 0.0
2015-Apr-19 00:28N 35°21' E 139°41'0 0.0
2015-Apr-18 23:31N 35°21' E 139°41'0 0.0
2015-Apr-18 22:31N 35°21' E 139°41'0 0.0
2015-Apr-18 21:31N 35°21' E 139°41'0 0.0
2015-Apr-18 20:31N 35°21' E 139°41'4 4.2
2015-Apr-18 19:33N 35°18' E 139°44'1110.7
2015-Apr-18 18:33N 35°07' E 139°45'1110.8
2015-Apr-18 17:33N 34°57' E 139°44'1211.3
2015-Apr-18 16:29N 34°46' E 139°50'1111.2
2015-Apr-18 15:30N 34°36' E 139°56'25 0.7
2015-Apr-17 06:31N 34°58' E 139°43'1010.4
2015-Apr-17 05:33N 35°08' E 139°45'10 9.8
2015-Apr-17 04:33N 35°18' E 139°44'7 7.1
2015-Apr-17 03:33N 35°23' E 139°39'0 0.0
2015-Apr-17 02:28N 35°23' E 139°39'0 0.0
2015-Apr-17 01:28N 35°23' E 139°39'0 0.0
2015-Apr-17 00:31N 35°23' E 139°39'0 0.0
2015-Apr-16 23:31N 35°23' E 139°39'0 0.4
2015-Apr-16 22:33N 35°23' E 139°40'3 2.9
2015-Apr-16 21:30N 35°21' E 139°41'0 0.0
2015-Apr-16 20:33N 35°21' E 139°41'0 0.0
2015-Apr-16 19:33N 35°21' E 139°41'0 0.0
2015-Apr-16 18:33N 35°21' E 139°41'0 0.1
2015-Apr-16 17:33N 35°21' E 139°41'0 0.0
2015-Apr-16 16:33N 35°21' E 139°41'0 0.0
2015-Apr-16 15:33N 35°21' E 139°41'0 0.0
2015-Apr-16 14:33N 35°21' E 139°41'0 0.0
2015-Apr-16 13:33N 35°21' E 139°41'0 0.0
2015-Apr-16 12:33N 35°21' E 139°41'0 0.0
2015-Apr-16 11:33N 35°21' E 139°41'0 0.0
2015-Apr-16 10:33N 35°21' E 139°41'0 0.0
2015-Apr-16 09:33N 35°21' E 139°41'0 0.0
2015-Apr-16 08:33N 35°21' E 139°41'0 0.0
2015-Apr-16 07:18N 35°21' E 139°41'0 0.0
2015-Apr-16 06:15N 35°21' E 139°41'0 0.0
2015-Apr-16 05:33N 35°21' E 139°41'0 0.0
2015-Apr-16 04:33N 35°21' E 139°41'0 0.0
2015-Apr-16 03:33N 35°21' E 139°41'0 0.0
2015-Apr-16 02:33N 35°21' E 139°41'0 0.0
2015-Apr-16 01:33N 35°21' E 139°41'0 0.0
2015-Apr-15 23:33N 35°21' E 139°41'0 0.1
2015-Apr-15 22:33N 35°21' E 139°41'0 0.1
2015-Apr-15 21:18N 35°21' E 139°41'0 0.0
2015-Apr-15 20:15N 35°21' E 139°41'0 0.1
2015-Apr-15 19:33N 35°21' E 139°41'0 0.0
2015-Apr-15 18:27N 35°21' E 139°41'0 0.1
2015-Apr-15 17:33N 35°21' E 139°41'0 0.1
2015-Apr-15 16:30N 35°21' E 139°41'0 0.0
2015-Apr-15 15:33N 35°21' E 139°41'0 0.0
2015-Apr-15 14:33N 35°21' E 139°41'0 0.0
2015-Apr-15 13:33N 35°21' E 139°41'0 0.1
2015-Apr-15 12:33N 35°21' E 139°41'0 0.1
2015-Apr-15 11:33N 35°21' E 139°41'0 0.0
2015-Apr-15 10:34N 35°21' E 139°41'0 0.0
2015-Apr-15 09:31N 35°21' E 139°41'0 0.0
2015-Apr-15 08:33N 35°21' E 139°41'0 0.0
2015-Apr-15 07:34N 35°21' E 139°41'0 0.1
2015-Apr-15 06:34N 35°21' E 139°41'0 0.0
2015-Apr-15 05:33N 35°21' E 139°41'0 0.0
2015-Apr-15 04:34N 35°21' E 139°41'0 0.0
2015-Apr-15 03:33N 35°21' E 139°41'0 0.0
2015-Apr-15 02:33N 35°21' E 139°41'0 0.1
2015-Apr-15 01:34N 35°21' E 139°41'0 0.1
2015-Apr-15 00:33N 35°21' E 139°41'  

Dump ship's entire track history